Terminal Aerodrome Forecast
Issued by NWS Atlanta, GA

Home | Current Version | Previous Version | Text Only | Print | Product List | Glossary On
Versions: 1 2 3 4 5 6 7 8 9 10 11 12 13 14 15 16 17 18 19 20 21 22 23 24 25 26 27 28 29 30 31
000
FTAK31 PAJN 301135
TAFAHN
TAF
PAHN 301135Z 3012/3112 08010G18KT P6SM VCSH BKN010 OVC025
     FM301900 10015G25KT P6SM -SHRA OVC025
     FM310000 09012G20KT P6SM -SHRA OVC015
     FM310900 09012KT P6SM -RA OVC015
      AMD LTD TO CLD VIS AND WIND=

USA.gov is the U.S. government's official web portal to all federal, state and local government web resources and services.